Bei Facebook empfehlenBei Twitter postenGoogle plusPinterest

Das Wetter im Erzgebirge am 02.03.2016

Wetter und Klima am 02.03.2016 Holzhau im Erzgebirge (630m ü.NN)
Letzte gemessene Temperatur und Uhrzeit der Messung23:45:00 Uhr-0.10 °C
Temperatur (Maximum / Höchstwert) und Uhrzeit der Messung12:30:00 Uhr6.30 °C
Temperatur (Minimum / Tiefstwert) und Uhrzeit der Messung00:00:00-6.60 °C
Errechneter Absolutwert der Temperaturschwankungen zwischen Tmin und Tmax des Tages12.90 K
Errechnete Tagesmitteltemperatur0.90208 °C
Gesamt - Niederschlag des Tages (in flüssiger Form)6.21 Liter / m²
Luftdruck (Maximum / Höchstwert) und Zeitpunkt der Messung00:00:00 Uhr1007.10 hPa
Luftdruck (Minimum / Tiefstwert) und Zeitpunkt der Messung17:45:00 Uhr995.00 hPa
Errechneter Absolutwert der Luftdruckschwankungen des Tages12.10 hPa
Höchste gemessene Windgeschwindigkeit und Uhrzeit der Messung11:45:00 Uhr12.24 km/h
Errechnete Windhäufigkeit in Relation zu den Messwerten des Tages21.87500 %
Niedrigste Windkühle (Windchill) und Zeitpunkt der Messung00:00:00 Uhr-6.60 °C
Taupunkt (Maximum / Höchstwert) und Uhrzeit der Messung12:15:00 Uhr4.80 °C
Taupunkt (Minimum / Tiefstwert) und Uhrzeit der Messung00:00:00-7.80 °C
Anzahl der automatisch eingelesenen Messwerte 96

Detaillierte Wetter- und Klima- Messwerte für den 02.03.2016 in Holzhau im Erzgebirge (630m ü.NN)
ZeitTemperaturLuftdruckRel. LuftfeuchteWindWindrichtungWindchillTaupunktNiederschlag l/m²
23:45:00-0.10 °C997.10 hPa93.00 %-1.20 °C6.21
23:30:00-0.10 °C997.10 hPa93.00 %-1.20 °C6.21
23:15:000.10 °C997.20 hPa93.00 %-0.90 °C6.21
23:00:000.10 °C997.20 hPa93.00 %-0.90 °C6.21
22:45:000.10 °C997.10 hPa93.00 %-0.90 °C6.21
22:30:000.20 °C997.50 hPa93.00 %-0.80 °C6.21
22:15:000.30 °C997.50 hPa92.00 %-0.80 °C6.21
22:00:000.30 °C997.30 hPa93.00 %-0.70 °C6.21
21:45:000.40 °C997.40 hPa93.00 %-0.60 °C6.21
21:30:000.40 °C997.10 hPa93.00 %-0.60 °C6.21
21:15:000.30 °C997.00 hPa92.00 %-0.80 °C6.21
21:00:000.30 °C996.40 hPa92.00 %-0.80 °C6.21
20:45:000.30 °C996.30 hPa92.00 %-0.80 °C6.21
20:30:000.40 °C996.00 hPa92.00 %-0.70 °C6.21
20:15:000.40 °C995.70 hPa92.00 %-0.70 °C6.21
20:00:000.60 °C995.90 hPa92.00 %-0.50 °C6.21
19:45:000.90 °C996.00 hPa92.00 %-0.20 °C6.21
19:30:001.10 °C995.70 hPa92.00 %-0.10 °C6.21
19:15:001.30 °C996.00 hPa91.00 %0.00 °C6.21
19:00:001.30 °C996.20 hPa91.00 %3.60 km/hWNW1.30 °C0.00 °C6.21
18:45:001.40 °C995.90 hPa91.00 %0.10 °C6.21
18:30:001.60 °C995.50 hPa91.00 %0.30 °C6.21
18:15:001.80 °C995.30 hPa91.00 %0.50 °C6.21
18:00:001.90 °C995.30 hPa91.00 %0.60 °C5.69
17:45:001.90 °C995.00 hPa90.00 %0.40 °C5.69
17:30:001.90 °C995.20 hPa90.00 %0.40 °C5.69
17:15:002.10 °C995.50 hPa90.00 %0.60 °C5.69
17:00:002.30 °C995.80 hPa90.00 %0.80 °C5.69
16:45:002.50 °C995.80 hPa89.00 %0.90 °C5.69
16:30:002.80 °C995.50 hPa89.00 %1.20 °C5.69
16:15:002.90 °C995.60 hPa89.00 %1.30 °C5.69
16:00:003.20 °C996.10 hPa89.00 %2.88 km/hSSO3.20 °C1.60 °C5.69
15:45:003.30 °C996.20 hPa89.00 %1.70 °C5.69
15:30:003.40 °C996.30 hPa89.00 %5.40 km/hSW2.10 °C1.80 °C5.69
15:15:003.30 °C996.40 hPa89.00 %2.88 km/hSSW3.30 °C1.70 °C5.69
15:00:003.30 °C996.70 hPa89.00 %2.16 km/hSO3.30 °C1.70 °C5.69
14:45:003.10 °C997.00 hPa88.00 %1.30 °C5.69
14:30:003.10 °C997.00 hPa88.00 %1.30 °C5.69
14:15:003.40 °C997.30 hPa87.00 %8.64 km/hSO1.10 °C1.40 °C5.69
14:00:003.60 °C997.70 hPa87.00 %3.96 km/hSO3.60 °C1.60 °C5.69
13:45:004.00 °C997.80 hPa86.00 %2.16 km/hSSW4.00 °C1.90 °C5.69
13:30:004.80 °C998.00 hPa87.00 %8.64 km/hSSO2.70 °C2.80 °C5.18
13:15:004.70 °C998.20 hPa87.00 %5.04 km/hSO3.70 °C2.70 °C5.18
13:00:005.20 °C998.20 hPa87.00 %3.20 °C4.66
12:45:005.50 °C998.20 hPa87.00 %5.04 km/hSSW4.60 °C3.50 °C4.66
12:30:006.30 °C998.60 hPa88.00 %4.68 km/hS6.30 °C4.50 °C4.14
12:15:006.30 °C998.50 hPa90.00 %4.80 °C3.62
12:00:006.10 °C998.60 hPa91.00 %3.96 km/hSSW6.10 °C4.70 °C2.59
11:45:005.60 °C998.70 hPa93.00 %12.24 km/hSW2.90 °C4.60 °C1.55
11:30:004.90 °C998.90 hPa93.00 %10.44 km/hSW2.40 °C3.90 °C0.51
11:15:003.90 °C999.00 hPa94.00 %5.76 km/hSW2.50 °C3.00 °C 
11:00:003.20 °C999.10 hPa93.00 %3.96 km/hSSW3.20 °C2.20 °C 
10:45:003.10 °C999.40 hPa93.00 %9.36 km/hSW0.50 °C2.10 °C 
10:30:002.60 °C999.70 hPa94.00 %3.24 km/hSW2.60 °C1.70 °C 
10:15:002.40 °C999.80 hPa94.00 %7.92 km/hSSW0.10 °C1.50 °C 
10:00:002.20 °C999.90 hPa94.00 %5.04 km/hSSO0.90 °C1.30 °C 
09:45:002.10 °C999.90 hPa94.00 %1.20 °C 
09:30:002.30 °C1000.10 hPa94.00 %1.40 °C 
09:15:002.30 °C1000.40 hPa94.00 %1.40 °C 
09:00:002.40 °C1000.40 hPa94.00 %1.50 °C 
08:45:002.20 °C1000.50 hPa94.00 %1.30 °C 
08:30:001.80 °C1000.60 hPa95.00 %1.10 °C 
08:15:001.30 °C1000.80 hPa95.00 %0.60 °C 
08:00:000.80 °C1000.60 hPa95.00 %0.10 °C 
07:45:000.30 °C1000.70 hPa94.00 %-0.50 °C 
07:30:00-0.10 °C1000.80 hPa94.00 %-1.00 °C 
07:15:00-0.20 °C1000.90 hPa94.00 %-1.10 °C 
07:00:00-0.20 °C1001.10 hPa94.00 %-1.10 °C 
06:45:00-0.10 °C1001.10 hPa94.00 %-1.00 °C 
06:30:000.20 °C1001.20 hPa94.00 %-0.60 °C 
06:15:000.20 °C1001.40 hPa94.00 %-0.60 °C 
06:00:000.10 °C1001.50 hPa94.00 %-0.70 °C 
05:45:00-0.20 °C1001.60 hPa94.00 %-1.10 °C 
05:30:00-0.40 °C1001.60 hPa94.00 %-1.30 °C 
05:15:00-0.70 °C1002.00 hPa94.00 %-1.60 °C 
05:00:00-0.70 °C1002.30 hPa94.00 %-1.60 °C 
04:45:00-0.60 °C1002.40 hPa94.00 %-1.50 °C 
04:30:00-0.40 °C1002.50 hPa94.00 %-1.30 °C 
04:15:00-0.40 °C1002.50 hPa94.00 %-1.30 °C 
04:00:00-0.40 °C1002.50 hPa94.00 %-1.30 °C 
03:45:00-0.80 °C1002.80 hPa94.00 %-1.70 °C 
03:30:00-1.20 °C1003.20 hPa94.00 %-2.10 °C 
03:15:00-1.40 °C1003.40 hPa94.00 %-2.30 °C 
03:00:00-1.40 °C1003.70 hPa94.00 %-2.30 °C 
02:45:00-1.70 °C1003.80 hPa94.00 %-2.60 °C 
02:30:00-2.50 °C1004.20 hPa94.00 %-3.40 °C 
02:15:00-3.20 °C1004.50 hPa93.00 %-4.30 °C 
02:00:00-3.40 °C1004.80 hPa93.00 %-4.50 °C 
01:45:00-3.70 °C1005.00 hPa93.00 %-4.80 °C 
01:30:00-4.10 °C1005.50 hPa93.00 %-5.20 °C 
01:15:00-4.40 °C1005.80 hPa93.00 %-5.50 °C 
01:00:00-4.80 °C1006.10 hPa93.00 %-5.90 °C 
00:45:00-5.60 °C1006.40 hPa93.00 %-6.70 °C 
00:30:00-6.00 °C1006.60 hPa93.00 %-7.10 °C 
00:15:00-6.40 °C1006.90 hPa93.00 %-7.50 °C 
00:00:00-6.60 °C1007.10 hPa92.00 %-7.80 °C 

Permanenter Link zu dieser Seite: Wetter im Erzgebirge am 02.03.2016
Performance-Info: Die Erstellung der Seite / Statistik(en) / Tabelle(n) erforderte 5 Datenbankserver-Abfrage(n) und dauerte 124 Millisekunden. (Dieser Messwert ist von der Gesamt-Auslastung des Servers abhängig.)
Erzgebirge - Wetter | Erzgebirge - Wetter (Mobilgeräte) | Komplette Klimadatenbank